sensor_id;sensor_type;location;lat;lon;timestamp;P1;durP1;ratioP1;P2;durP2;ratioP2
31336;SDS011;22846;42.654;23.314;2024-02-26T00:00:28;8.07;;;5.88;;
31336;SDS011;22846;42.654;23.314;2024-02-26T00:02:55;9.07;;;6.20;;
31336;SDS011;22846;42.654;23.314;2024-02-26T00:05:21;7.75;;;5.90;;
31336;SDS011;22846;42.654;23.314;2024-02-26T00:07:46;7.78;;;5.80;;
31336;SDS011;22846;42.654;23.314;2024-02-26T00:10:12;8.45;;;6.15;;
31336;SDS011;22846;42.654;23.314;2024-02-26T00:12:38;8.77;;;6.28;;
31336;SDS011;22846;42.654;23.314;2024-02-26T00:15:05;7.70;;;5.50;;
31336;SDS011;22846;42.654;23.314;2024-02-26T00:17:31;8.27;;;6.00;;
31336;SDS011;22846;42.654;23.314;2024-02-26T00:19:56;10.13;;;5.97;;
31336;SDS011;22846;42.654;23.314;2024-02-26T00:22:21;7.90;;;6.47;;
31336;SDS011;22846;42.654;23.314;2024-02-26T00:24:47;10.18;;;5.85;;
31336;SDS011;22846;42.654;23.314;2024-02-26T00:27:12;8.25;;;5.75;;
31336;SDS011;22846;42.654;23.314;2024-02-26T00:29:38;9.00;;;6.45;;
31336;SDS011;22846;42.654;23.314;2024-02-26T00:32:03;8.43;;;5.78;;
31336;SDS011;22846;42.654;23.314;2024-02-26T00:34:29;7.13;;;5.38;;
31336;SDS011;22846;42.654;23.314;2024-02-26T00:36:54;7.82;;;5.75;;
31336;SDS011;22846;42.654;23.314;2024-02-26T00:39:20;9.07;;;5.65;;
31336;SDS011;22846;42.654;23.314;2024-02-26T00:41:45;7.53;;;5.50;;
31336;SDS011;22846;42.654;23.314;2024-02-26T00:44:10;8.18;;;5.88;;
31336;SDS011;22846;42.654;23.314;2024-02-26T00:46:36;7.07;;;5.57;;
31336;SDS011;22846;42.654;23.314;2024-02-26T00:49:02;6.72;;;5.25;;
31336;SDS011;22846;42.654;23.314;2024-02-26T00:51:27;7.22;;;5.53;;
31336;SDS011;22846;42.654;23.314;2024-02-26T00:53:53;6.70;;;5.13;;
31336;SDS011;22846;42.654;23.314;2024-02-26T00:56:20;7.25;;;5.32;;
31336;SDS011;22846;42.654;23.314;2024-02-26T00:58:45;6.97;;;5.50;;
31336;SDS011;22846;42.654;23.314;2024-02-26T01:01:10;8.05;;;5.07;;
31336;SDS011;22846;42.654;23.314;2024-02-26T01:03:36;7.57;;;5.50;;
31336;SDS011;22846;42.654;23.314;2024-02-26T01:06:01;7.18;;;5.38;;
31336;SDS011;22846;42.654;23.314;2024-02-26T01:08:27;6.47;;;5.03;;
31336;SDS011;22846;42.654;23.314;2024-02-26T01:10:52;7.78;;;5.38;;
31336;SDS011;22846;42.654;23.314;2024-02-26T01:13:17;6.93;;;4.90;;
31336;SDS011;22846;42.654;23.314;2024-02-26T01:15:43;5.78;;;4.78;;
31336;SDS011;22846;42.654;23.314;2024-02-26T01:18:09;6.70;;;5.20;;
31336;SDS011;22846;42.654;23.314;2024-02-26T01:20:34;6.03;;;5.07;;
31336;SDS011;22846;42.654;23.314;2024-02-26T01:22:59;6.07;;;4.50;;
31336;SDS011;22846;42.654;23.314;2024-02-26T01:25:25;7.90;;;5.13;;
31336;SDS011;22846;42.654;23.314;2024-02-26T01:27:50;7.28;;;5.18;;
31336;SDS011;22846;42.654;23.314;2024-02-26T01:30:16;6.22;;;4.70;;
31336;SDS011;22846;42.654;23.314;2024-02-26T01:32:42;5.70;;;4.40;;
31336;SDS011;22846;42.654;23.314;2024-02-26T01:35:07;6.57;;;5.00;;
31336;SDS011;22846;42.654;23.314;2024-02-26T01:37:35;6.43;;;5.03;;
31336;SDS011;22846;42.654;23.314;2024-02-26T01:40:01;8.07;;;4.90;;
31336;SDS011;22846;42.654;23.314;2024-02-26T01:42:29;6.60;;;5.00;;
31336;SDS011;22846;42.654;23.314;2024-02-26T01:44:57;6.63;;;4.90;;
31336;SDS011;22846;42.654;23.314;2024-02-26T01:47:23;6.30;;;4.65;;
31336;SDS011;22846;42.654;23.314;2024-02-26T01:49:50;6.15;;;4.65;;
31336;SDS011;22846;42.654;23.314;2024-02-26T01:52:15;5.97;;;4.85;;
31336;SDS011;22846;42.654;23.314;2024-02-26T01:54:42;6.82;;;4.90;;
31336;SDS011;22846;42.654;23.314;2024-02-26T01:57:10;5.60;;;4.18;;
31336;SDS011;22846;42.654;23.314;2024-02-26T01:59:37;5.63;;;4.50;;
31336;SDS011;22846;42.654;23.314;2024-02-26T02:02:05;7.40;;;4.70;;
31336;SDS011;22846;42.654;23.314;2024-02-26T02:04:34;5.43;;;4.28;;
31336;SDS011;22846;42.654;23.314;2024-02-26T02:07:00;5.68;;;4.35;;
31336;SDS011;22846;42.654;23.314;2024-02-26T02:09:27;4.38;;;3.83;;
31336;SDS011;22846;42.654;23.314;2024-02-26T02:11:52;5.72;;;4.38;;
31336;SDS011;22846;42.654;23.314;2024-02-26T02:14:19;5.03;;;3.95;;
31336;SDS011;22846;42.654;23.314;2024-02-26T02:16:44;5.20;;;4.15;;
31336;SDS011;22846;42.654;23.314;2024-02-26T02:19:09;5.82;;;4.25;;
31336;SDS011;22846;42.654;23.314;2024-02-26T02:21:35;5.28;;;4.15;;
31336;SDS011;22846;42.654;23.314;2024-02-26T02:24:00;5.25;;;3.97;;
31336;SDS011;22846;42.654;23.314;2024-02-26T02:26:26;5.50;;;4.50;;
31336;SDS011;22846;42.654;23.314;2024-02-26T02:28:51;6.28;;;4.47;;
31336;SDS011;22846;42.654;23.314;2024-02-26T02:31:18;6.05;;;4.38;;
31336;SDS011;22846;42.654;23.314;2024-02-26T02:33:44;5.15;;;4.20;;
31336;SDS011;22846;42.654;23.314;2024-02-26T02:36:09;5.70;;;4.30;;
31336;SDS011;22846;42.654;23.314;2024-02-26T02:38:35;6.28;;;4.75;;
31336;SDS011;22846;42.654;23.314;2024-02-26T02:41:14;5.53;;;4.25;;
31336;SDS011;22846;42.654;23.314;2024-02-26T02:43:40;5.13;;;4.00;;
31336;SDS011;22846;42.654;23.314;2024-02-26T02:46:05;5.50;;;4.20;;
31336;SDS011;22846;42.654;23.314;2024-02-26T02:48:30;5.07;;;3.83;;
31336;SDS011;22846;42.654;23.314;2024-02-26T02:50:56;4.88;;;3.75;;
31336;SDS011;22846;42.654;23.314;2024-02-26T02:53:21;5.95;;;4.30;;
31336;SDS011;22846;42.654;23.314;2024-02-26T02:55:46;5.35;;;4.05;;
31336;SDS011;22846;42.654;23.314;2024-02-26T02:58:12;6.00;;;4.30;;
31336;SDS011;22846;42.654;23.314;2024-02-26T03:00:37;5.88;;;4.28;;
31336;SDS011;22846;42.654;23.314;2024-02-26T03:03:03;5.18;;;4.03;;
31336;SDS011;22846;42.654;23.314;2024-02-26T03:05:29;5.28;;;4.07;;
31336;SDS011;22846;42.654;23.314;2024-02-26T03:07:54;4.90;;;3.63;;
31336;SDS011;22846;42.654;23.314;2024-02-26T03:10:19;4.75;;;3.80;;
31336;SDS011;22846;42.654;23.314;2024-02-26T03:12:45;4.68;;;4.15;;
31336;SDS011;22846;42.654;23.314;2024-02-26T03:15:11;4.60;;;3.83;;
31336;SDS011;22846;42.654;23.314;2024-02-26T03:17:36;4.57;;;3.65;;
31336;SDS011;22846;42.654;23.314;2024-02-26T03:20:02;5.15;;;3.75;;
31336;SDS011;22846;42.654;23.314;2024-02-26T03:22:30;5.18;;;4.05;;
31336;SDS011;22846;42.654;23.314;2024-02-26T03:24:55;5.30;;;3.92;;
31336;SDS011;22846;42.654;23.314;2024-02-26T03:27:21;4.80;;;4.00;;
31336;SDS011;22846;42.654;23.314;2024-02-26T03:29:46;5.78;;;3.85;;
31336;SDS011;22846;42.654;23.314;2024-02-26T03:32:13;5.00;;;3.60;;
31336;SDS011;22846;42.654;23.314;2024-02-26T03:34:38;4.85;;;3.20;;
31336;SDS011;22846;42.654;23.314;2024-02-26T03:37:06;5.07;;;3.60;;
31336;SDS011;22846;42.654;23.314;2024-02-26T03:39:34;4.10;;;3.45;;
31336;SDS011;22846;42.654;23.314;2024-02-26T03:41:59;3.80;;;3.22;;
31336;SDS011;22846;42.654;23.314;2024-02-26T03:44:25;3.90;;;3.40;;
31336;SDS011;22846;42.654;23.314;2024-02-26T03:46:50;5.82;;;3.78;;
31336;SDS011;22846;42.654;23.314;2024-02-26T03:49:15;5.60;;;3.38;;
31336;SDS011;22846;42.654;23.314;2024-02-26T03:51:41;3.95;;;3.35;;
31336;SDS011;22846;42.654;23.314;2024-02-26T03:54:07;4.25;;;3.40;;
31336;SDS011;22846;42.654;23.314;2024-02-26T03:56:32;4.70;;;3.25;;
31336;SDS011;22846;42.654;23.314;2024-02-26T03:58:57;4.30;;;3.40;;
31336;SDS011;22846;42.654;23.314;2024-02-26T04:01:24;4.90;;;3.72;;
31336;SDS011;22846;42.654;23.314;2024-02-26T04:03:50;5.53;;;3.53;;
31336;SDS011;22846;42.654;23.314;2024-02-26T04:06:15;5.05;;;3.38;;
31336;SDS011;22846;42.654;23.314;2024-02-26T04:08:43;4.07;;;3.53;;
31336;SDS011;22846;42.654;23.314;2024-02-26T04:11:08;3.55;;;3.03;;
31336;SDS011;22846;42.654;23.314;2024-02-26T04:13:34;3.67;;;3.28;;
31336;SDS011;22846;42.654;23.314;2024-02-26T04:16:00;3.33;;;2.88;;
31336;SDS011;22846;42.654;23.314;2024-02-26T04:18:29;3.45;;;3.03;;
31336;SDS011;22846;42.654;23.314;2024-02-26T04:20:54;4.55;;;3.17;;
31336;SDS011;22846;42.654;23.314;2024-02-26T04:23:19;3.72;;;2.97;;
31336;SDS011;22846;42.654;23.314;2024-02-26T04:25:45;4.35;;;3.28;;
31336;SDS011;22846;42.654;23.314;2024-02-26T04:28:10;3.75;;;3.33;;
31336;SDS011;22846;42.654;23.314;2024-02-26T04:30:36;3.72;;;3.15;;
31336;SDS011;22846;42.654;23.314;2024-02-26T04:33:01;4.30;;;3.22;;
31336;SDS011;22846;42.654;23.314;2024-02-26T04:35:27;3.88;;;3.25;;
31336;SDS011;22846;42.654;23.314;2024-02-26T04:37:52;3.65;;;3.20;;
31336;SDS011;22846;42.654;23.314;2024-02-26T04:40:18;3.55;;;3.08;;
31336;SDS011;22846;42.654;23.314;2024-02-26T04:42:43;3.95;;;3.30;;
31336;SDS011;22846;42.654;23.314;2024-02-26T04:45:09;3.88;;;3.38;;
31336;SDS011;22846;42.654;23.314;2024-02-26T04:47:34;4.75;;;3.60;;
31336;SDS011;22846;42.654;23.314;2024-02-26T04:49:59;4.07;;;3.67;;
31336;SDS011;22846;42.654;23.314;2024-02-26T04:52:25;4.53;;;3.50;;
31336;SDS011;22846;42.654;23.314;2024-02-26T04:54:51;3.58;;;3.00;;
31336;SDS011;22846;42.654;23.314;2024-02-26T04:57:16;3.72;;;2.75;;
31336;SDS011;22846;42.654;23.314;2024-02-26T04:59:43;3.47;;;2.78;;
31336;SDS011;22846;42.654;23.314;2024-02-26T05:02:10;3.58;;;2.92;;
31336;SDS011;22846;42.654;23.314;2024-02-26T05:04:35;3.67;;;2.90;;
31336;SDS011;22846;42.654;23.314;2024-02-26T05:07:00;4.45;;;2.80;;
31336;SDS011;22846;42.654;23.314;2024-02-26T05:09:26;3.35;;;2.50;;
31336;SDS011;22846;42.654;23.314;2024-02-26T05:11:51;3.88;;;2.83;;
31336;SDS011;22846;42.654;23.314;2024-02-26T05:14:17;3.20;;;2.70;;
31336;SDS011;22846;42.654;23.314;2024-02-26T05:16:42;3.25;;;2.63;;
31336;SDS011;22846;42.654;23.314;2024-02-26T05:19:07;3.08;;;2.50;;
31336;SDS011;22846;42.654;23.314;2024-02-26T05:21:33;2.97;;;2.38;;
31336;SDS011;22846;42.654;23.314;2024-02-26T05:23:58;3.00;;;2.65;;
31336;SDS011;22846;42.654;23.314;2024-02-26T05:26:24;3.00;;;2.50;;
31336;SDS011;22846;42.654;23.314;2024-02-26T05:28:49;3.03;;;2.60;;
31336;SDS011;22846;42.654;23.314;2024-02-26T05:31:15;3.70;;;2.63;;
31336;SDS011;22846;42.654;23.314;2024-02-26T05:33:41;3.03;;;2.40;;
31336;SDS011;22846;42.654;23.314;2024-02-26T05:36:07;2.97;;;2.67;;
31336;SDS011;22846;42.654;23.314;2024-02-26T05:38:32;3.72;;;2.80;;
31336;SDS011;22846;42.654;23.314;2024-02-26T05:40:58;3.60;;;2.70;;
31336;SDS011;22846;42.654;23.314;2024-02-26T05:43:27;3.53;;;2.78;;
31336;SDS011;22846;42.654;23.314;2024-02-26T05:48:37;3.25;;;2.67;;
31336;SDS011;22846;42.654;23.314;2024-02-26T05:51:03;3.97;;;3.10;;
31336;SDS011;22846;42.654;23.314;2024-02-26T05:53:29;3.60;;;3.25;;
31336;SDS011;22846;42.654;23.314;2024-02-26T05:55:54;4.18;;;3.35;;
31336;SDS011;22846;42.654;23.314;2024-02-26T05:58:20;4.80;;;3.60;;
31336;SDS011;22846;42.654;23.314;2024-02-26T06:00:45;5.20;;;3.58;;
31336;SDS011;22846;42.654;23.314;2024-02-26T06:03:11;5.68;;;3.65;;
31336;SDS011;22846;42.654;23.314;2024-02-26T06:05:36;5.18;;;4.25;;
31336;SDS011;22846;42.654;23.314;2024-02-26T06:08:02;4.95;;;4.05;;
31336;SDS011;22846;42.654;23.314;2024-02-26T06:10:27;3.55;;;3.20;;
31336;SDS011;22846;42.654;23.314;2024-02-26T06:12:53;4.55;;;3.67;;
31336;SDS011;22846;42.654;23.314;2024-02-26T06:15:18;4.75;;;2.70;;
31336;SDS011;22846;42.654;23.314;2024-02-26T06:17:43;4.10;;;3.15;;
31336;SDS011;22846;42.654;23.314;2024-02-26T06:20:09;5.68;;;3.72;;
31336;SDS011;22846;42.654;23.314;2024-02-26T06:22:38;8.98;;;5.97;;
31336;SDS011;22846;42.654;23.314;2024-02-26T06:25:05;13.48;;;8.38;;
31336;SDS011;22846;42.654;23.314;2024-02-26T06:27:30;13.57;;;7.80;;
31336;SDS011;22846;42.654;23.314;2024-02-26T06:29:56;10.30;;;6.43;;
31336;SDS011;22846;42.654;23.314;2024-02-26T06:32:21;11.45;;;6.88;;
31336;SDS011;22846;42.654;23.314;2024-02-26T06:34:48;10.93;;;6.32;;
31336;SDS011;22846;42.654;23.314;2024-02-26T06:37:13;11.52;;;6.75;;
31336;SDS011;22846;42.654;23.314;2024-02-26T06:39:39;19.05;;;9.48;;
31336;SDS011;22846;42.654;23.314;2024-02-26T06:42:04;24.23;;;13.18;;
31336;SDS011;22846;42.654;23.314;2024-02-26T06:44:30;23.90;;;12.57;;
31336;SDS011;22846;42.654;23.314;2024-02-26T06:47:00;24.58;;;13.82;;
31336;SDS011;22846;42.654;23.314;2024-02-26T06:49:26;24.40;;;13.00;;
31336;SDS011;22846;42.654;23.314;2024-02-26T06:51:52;20.58;;;11.02;;
31336;SDS011;22846;42.654;23.314;2024-02-26T06:54:17;15.77;;;9.52;;
31336;SDS011;22846;42.654;23.314;2024-02-26T06:56:43;17.77;;;9.13;;
31336;SDS011;22846;42.654;23.314;2024-02-26T06:59:08;14.38;;;8.23;;
31336;SDS011;22846;42.654;23.314;2024-02-26T07:01:34;12.20;;;7.63;;
31336;SDS011;22846;42.654;23.314;2024-02-26T07:03:59;11.50;;;6.93;;
31336;SDS011;22846;42.654;23.314;2024-02-26T07:06:25;12.35;;;7.13;;
31336;SDS011;22846;42.654;23.314;2024-02-26T07:08:52;11.57;;;7.35;;
31336;SDS011;22846;42.654;23.314;2024-02-26T07:11:17;13.10;;;7.70;;
31336;SDS011;22846;42.654;23.314;2024-02-26T07:13:44;12.15;;;6.60;;
31336;SDS011;22846;42.654;23.314;2024-02-26T07:16:14;11.63;;;6.78;;
31336;SDS011;22846;42.654;23.314;2024-02-26T07:18:40;10.57;;;6.22;;
31336;SDS011;22846;42.654;23.314;2024-02-26T07:21:05;9.50;;;5.95;;
31336;SDS011;22846;42.654;23.314;2024-02-26T07:23:31;8.10;;;5.32;;
31336;SDS011;22846;42.654;23.314;2024-02-26T07:25:57;8.95;;;5.20;;
31336;SDS011;22846;42.654;23.314;2024-02-26T07:28:24;7.10;;;4.60;;
31336;SDS011;22846;42.654;23.314;2024-02-26T07:30:50;11.38;;;6.75;;
31336;SDS011;22846;42.654;23.314;2024-02-26T07:33:15;63.95;;;39.50;;
31336;SDS011;22846;42.654;23.314;2024-02-26T07:35:40;53.70;;;34.38;;
31336;SDS011;22846;42.654;23.314;2024-02-26T07:38:06;46.03;;;29.50;;
31336;SDS011;22846;42.654;23.314;2024-02-26T07:40:33;47.03;;;30.25;;
31336;SDS011;22846;42.654;23.314;2024-02-26T07:42:58;45.63;;;29.13;;
31336;SDS011;22846;42.654;23.314;2024-02-26T07:45:23;43.72;;;25.05;;
31336;SDS011;22846;42.654;23.314;2024-02-26T07:47:49;36.20;;;22.45;;
31336;SDS011;22846;42.654;23.314;2024-02-26T07:50:16;34.42;;;20.02;;
31336;SDS011;22846;42.654;23.314;2024-02-26T07:52:42;45.92;;;32.97;;
31336;SDS011;22846;42.654;23.314;2024-02-26T07:55:07;77.30;;;52.47;;
31336;SDS011;22846;42.654;23.314;2024-02-26T07:57:33;60.80;;;41.60;;
31336;SDS011;22846;42.654;23.314;2024-02-26T07:59:59;127.78;;;84.15;;
31336;SDS011;22846;42.654;23.314;2024-02-26T08:02:24;114.13;;;78.30;;
31336;SDS011;22846;42.654;23.314;2024-02-26T08:04:50;101.78;;;68.50;;
31336;SDS011;22846;42.654;23.314;2024-02-26T08:07:16;92.25;;;58.58;;
31336;SDS011;22846;42.654;23.314;2024-02-26T08:09:42;78.63;;;53.10;;
31336;SDS011;22846;42.654;23.314;2024-02-26T08:12:07;77.00;;;49.15;;
31336;SDS011;22846;42.654;23.314;2024-02-26T08:14:33;63.55;;;39.22;;
31336;SDS011;22846;42.654;23.314;2024-02-26T08:16:58;60.83;;;38.45;;
31336;SDS011;22846;42.654;23.314;2024-02-26T08:19:24;61.85;;;38.85;;
31336;SDS011;22846;42.654;23.314;2024-02-26T08:21:50;52.97;;;35.38;;
31336;SDS011;22846;42.654;23.314;2024-02-26T08:24:15;44.97;;;30.80;;
31336;SDS011;22846;42.654;23.314;2024-02-26T08:26:42;49.80;;;32.25;;
31336;SDS011;22846;42.654;23.314;2024-02-26T08:29:07;48.05;;;29.65;;
31336;SDS011;22846;42.654;23.314;2024-02-26T08:31:32;47.70;;;30.52;;
31336;SDS011;22846;42.654;23.314;2024-02-26T08:33:58;48.38;;;29.10;;
31336;SDS011;22846;42.654;23.314;2024-02-26T08:36:24;43.83;;;28.85;;
31336;SDS011;22846;42.654;23.314;2024-02-26T08:38:50;40.80;;;28.02;;
31336;SDS011;22846;42.654;23.314;2024-02-26T08:41:15;42.65;;;26.25;;
31336;SDS011;22846;42.654;23.314;2024-02-26T08:43:40;38.20;;;25.25;;
31336;SDS011;22846;42.654;23.314;2024-02-26T08:46:09;35.17;;;24.02;;
31336;SDS011;22846;42.654;23.314;2024-02-26T08:48:35;38.70;;;23.58;;
31336;SDS011;22846;42.654;23.314;2024-02-26T08:51:04;31.08;;;21.75;;
31336;SDS011;22846;42.654;23.314;2024-02-26T08:53:32;86.93;;;56.60;;
31336;SDS011;22846;42.654;23.314;2024-02-26T08:55:58;77.75;;;52.78;;
31336;SDS011;22846;42.654;23.314;2024-02-26T08:58:23;69.82;;;46.28;;
31336;SDS011;22846;42.654;23.314;2024-02-26T09:00:49;68.30;;;45.67;;
31336;SDS011;22846;42.654;23.314;2024-02-26T09:03:14;62.30;;;43.47;;
31336;SDS011;22846;42.654;23.314;2024-02-26T09:05:39;61.78;;;41.08;;
31336;SDS011;22846;42.654;23.314;2024-02-26T09:08:05;60.85;;;41.03;;
31336;SDS011;22846;42.654;23.314;2024-02-26T09:10:31;54.53;;;35.28;;
31336;SDS011;22846;42.654;23.314;2024-02-26T09:12:57;49.50;;;34.15;;
31336;SDS011;22846;42.654;23.314;2024-02-26T09:15:23;48.63;;;33.97;;
31336;SDS011;22846;42.654;23.314;2024-02-26T09:17:49;48.40;;;33.22;;
31336;SDS011;22846;42.654;23.314;2024-02-26T09:20:15;45.47;;;31.88;;
31336;SDS011;22846;42.654;23.314;2024-02-26T09:22:45;47.30;;;32.03;;
31336;SDS011;22846;42.654;23.314;2024-02-26T09:25:10;46.42;;;30.90;;
31336;SDS011;22846;42.654;23.314;2024-02-26T09:27:36;42.47;;;29.52;;
31336;SDS011;22846;42.654;23.314;2024-02-26T09:30:01;43.75;;;29.88;;
31336;SDS011;22846;42.654;23.314;2024-02-26T09:32:27;38.47;;;28.40;;
31336;SDS011;22846;42.654;23.314;2024-02-26T09:34:53;38.45;;;26.58;;
31336;SDS011;22846;42.654;23.314;2024-02-26T09:37:18;34.35;;;24.75;;
31336;SDS011;22846;42.654;23.314;2024-02-26T09:39:43;38.13;;;26.40;;
31336;SDS011;22846;42.654;23.314;2024-02-26T09:42:09;37.80;;;26.38;;
31336;SDS011;22846;42.654;23.314;2024-02-26T09:44:39;34.20;;;24.70;;
31336;SDS011;22846;42.654;23.314;2024-02-26T09:47:07;35.92;;;24.58;;
31336;SDS011;22846;42.654;23.314;2024-02-26T09:49:35;33.22;;;23.48;;
31336;SDS011;22846;42.654;23.314;2024-02-26T09:52:01;30.42;;;22.15;;
31336;SDS011;22846;42.654;23.314;2024-02-26T09:54:30;31.48;;;21.45;;
31336;SDS011;22846;42.654;23.314;2024-02-26T09:56:58;32.20;;;22.08;;
31336;SDS011;22846;42.654;23.314;2024-02-26T09:59:25;29.55;;;20.80;;
31336;SDS011;22846;42.654;23.314;2024-02-26T10:01:52;28.92;;;20.13;;
31336;SDS011;22846;42.654;23.314;2024-02-26T10:04:18;55.40;;;38.22;;
31336;SDS011;22846;42.654;23.314;2024-02-26T10:06:45;31.55;;;21.92;;
31336;SDS011;22846;42.654;23.314;2024-02-26T10:09:11;17.88;;;12.45;;
31336;SDS011;22846;42.654;23.314;2024-02-26T10:11:37;22.90;;;13.43;;
31336;SDS011;22846;42.654;23.314;2024-02-26T10:14:05;21.38;;;14.38;;
31336;SDS011;22846;42.654;23.314;2024-02-26T10:16:30;25.75;;;18.02;;
31336;SDS011;22846;42.654;23.314;2024-02-26T10:18:58;20.27;;;14.90;;
31336;SDS011;22846;42.654;23.314;2024-02-26T10:21:23;24.15;;;14.50;;
31336;SDS011;22846;42.654;23.314;2024-02-26T10:23:49;20.38;;;13.32;;
31336;SDS011;22846;42.654;23.314;2024-02-26T10:26:18;18.17;;;13.18;;
31336;SDS011;22846;42.654;23.314;2024-02-26T10:28:45;19.20;;;13.63;;
31336;SDS011;22846;42.654;23.314;2024-02-26T10:31:11;22.63;;;14.20;;
31336;SDS011;22846;42.654;23.314;2024-02-26T10:33:38;17.70;;;12.75;;
31336;SDS011;22846;42.654;23.314;2024-02-26T10:36:04;16.05;;;11.93;;
31336;SDS011;22846;42.654;23.314;2024-02-26T10:38:32;23.35;;;12.00;;
31336;SDS011;22846;42.654;23.314;2024-02-26T10:40:58;16.45;;;11.63;;
31336;SDS011;22846;42.654;23.314;2024-02-26T10:43:24;14.48;;;10.73;;
31336;SDS011;22846;42.654;23.314;2024-02-26T10:45:52;14.88;;;10.85;;
31336;SDS011;22846;42.654;23.314;2024-02-26T10:48:20;15.98;;;11.93;;
31336;SDS011;22846;42.654;23.314;2024-02-26T10:50:46;14.77;;;10.85;;
31336;SDS011;22846;42.654;23.314;2024-02-26T10:53:15;15.27;;;11.02;;
31336;SDS011;22846;42.654;23.314;2024-02-26T10:55:49;16.48;;;11.60;;
31336;SDS011;22846;42.654;23.314;2024-02-26T10:58:19;14.63;;;11.15;;
31336;SDS011;22846;42.654;23.314;2024-02-26T11:00:46;14.45;;;10.35;;
31336;SDS011;22846;42.654;23.314;2024-02-26T11:03:14;14.82;;;9.50;;
31336;SDS011;22846;42.654;23.314;2024-02-26T11:05:45;14.35;;;9.35;;
31336;SDS011;22846;42.654;23.314;2024-02-26T11:08:13;15.32;;;10.13;;
31336;SDS011;22846;42.654;23.314;2024-02-26T11:10:39;13.63;;;10.07;;
31336;SDS011;22846;42.654;23.314;2024-02-26T11:13:06;13.75;;;9.57;;
31336;SDS011;22846;42.654;23.314;2024-02-26T11:15:34;11.40;;;8.73;;
31336;SDS011;22846;42.654;23.314;2024-02-26T11:18:00;12.20;;;9.05;;
31336;SDS011;22846;42.654;23.314;2024-02-26T11:20:28;10.63;;;8.68;;
31336;SDS011;22846;42.654;23.314;2024-02-26T11:22:54;12.93;;;8.68;;
31336;SDS011;22846;42.654;23.314;2024-02-26T11:25:20;12.43;;;8.65;;
31336;SDS011;22846;42.654;23.314;2024-02-26T11:27:47;15.75;;;9.32;;
31336;SDS011;22846;42.654;23.314;2024-02-26T11:30:18;17.90;;;9.20;;
31336;SDS011;22846;42.654;23.314;2024-02-26T11:32:45;11.93;;;8.35;;
31336;SDS011;22846;42.654;23.314;2024-02-26T11:35:11;12.13;;;8.40;;
31336;SDS011;22846;42.654;23.314;2024-02-26T11:37:40;19.23;;;8.75;;
31336;SDS011;22846;42.654;23.314;2024-02-26T11:40:09;12.43;;;8.18;;
31336;SDS011;22846;42.654;23.314;2024-02-26T11:42:36;10.45;;;7.70;;
31336;SDS011;22846;42.654;23.314;2024-02-26T11:45:38;22.38;;;15.60;;
31336;SDS011;22846;42.654;23.314;2024-02-26T11:48:03;31.95;;;22.75;;
31336;SDS011;22846;42.654;23.314;2024-02-26T11:50:35;41.22;;;30.63;;
31336;SDS011;22846;42.654;23.314;2024-02-26T11:53:19;34.88;;;25.20;;
31336;SDS011;22846;42.654;23.314;2024-02-26T11:58:39;29.05;;;21.50;;
31336;SDS011;22846;42.654;23.314;2024-02-26T12:01:05;30.13;;;21.95;;
31336;SDS011;22846;42.654;23.314;2024-02-26T12:03:51;26.00;;;17.52;;
31336;SDS011;22846;42.654;23.314;2024-02-26T12:06:18;24.42;;;17.65;;
31336;SDS011;22846;42.654;23.314;2024-02-26T12:08:44;23.48;;;17.63;;
31336;SDS011;22846;42.654;23.314;2024-02-26T12:11:15;23.38;;;16.98;;
31336;SDS011;22846;42.654;23.314;2024-02-26T12:13:45;23.90;;;16.25;;
31336;SDS011;22846;42.654;23.314;2024-02-26T12:16:21;24.23;;;16.35;;
31336;SDS011;22846;42.654;23.314;2024-02-26T12:19:08;22.10;;;15.43;;
31336;SDS011;22846;42.654;23.314;2024-02-26T12:21:35;24.02;;;15.82;;
31336;SDS011;22846;42.654;23.314;2024-02-26T12:24:12;22.73;;;15.00;;
31336;SDS011;22846;42.654;23.314;2024-02-26T12:26:39;19.95;;;13.50;;
31336;SDS011;22846;42.654;23.314;2024-02-26T12:29:05;22.63;;;14.20;;
31336;SDS011;22846;42.654;23.314;2024-02-26T12:31:32;21.15;;;13.98;;
31336;SDS011;22846;42.654;23.314;2024-02-26T12:33:58;19.75;;;13.38;;
31336;SDS011;22846;42.654;23.314;2024-02-26T12:36:24;21.23;;;13.23;;
31336;SDS011;22846;42.654;23.314;2024-02-26T12:38:50;18.02;;;12.68;;
31336;SDS011;22846;42.654;23.314;2024-02-26T12:41:16;17.10;;;13.00;;
31336;SDS011;22846;42.654;23.314;2024-02-26T12:43:42;21.00;;;12.32;;
31336;SDS011;22846;42.654;23.314;2024-02-26T12:46:07;18.77;;;12.00;;
31336;SDS011;22846;42.654;23.314;2024-02-26T12:48:33;19.20;;;12.88;;
31336;SDS011;22846;42.654;23.314;2024-02-26T12:50:59;16.48;;;12.15;;
31336;SDS011;22846;42.654;23.314;2024-02-26T12:53:24;18.25;;;12.07;;
31336;SDS011;22846;42.654;23.314;2024-02-26T12:55:51;16.55;;;11.43;;
31336;SDS011;22846;42.654;23.314;2024-02-26T12:58:36;18.50;;;11.18;;
31336;SDS011;22846;42.654;23.314;2024-02-26T13:01:04;14.07;;;10.35;;
31336;SDS011;22846;42.654;23.314;2024-02-26T13:03:30;16.15;;;10.50;;
31336;SDS011;22846;42.654;23.314;2024-02-26T13:05:56;17.60;;;11.45;;
31336;SDS011;22846;42.654;23.314;2024-02-26T13:08:22;14.95;;;10.50;;
31336;SDS011;22846;42.654;23.314;2024-02-26T13:10:49;25.10;;;15.32;;
31336;SDS011;22846;42.654;23.314;2024-02-26T13:13:16;55.42;;;37.28;;
31336;SDS011;22846;42.654;23.314;2024-02-26T13:15:42;64.72;;;41.88;;
31336;SDS011;22846;42.654;23.314;2024-02-26T13:18:09;38.00;;;26.88;;
31336;SDS011;22846;42.654;23.314;2024-02-26T13:20:36;34.38;;;24.95;;
31336;SDS011;22846;42.654;23.314;2024-02-26T13:23:02;45.92;;;29.95;;
31336;SDS011;22846;42.654;23.314;2024-02-26T13:25:27;44.90;;;29.15;;
31336;SDS011;22846;42.654;23.314;2024-02-26T13:28:03;40.78;;;25.48;;
31336;SDS011;22846;42.654;23.314;2024-02-26T13:30:33;44.55;;;25.15;;
31336;SDS011;22846;42.654;23.314;2024-02-26T13:33:06;38.22;;;23.92;;
31336;SDS011;22846;42.654;23.314;2024-02-26T13:35:35;36.50;;;24.25;;
31336;SDS011;22846;42.654;23.314;2024-02-26T13:38:02;32.22;;;21.65;;
31336;SDS011;22846;42.654;23.314;2024-02-26T13:40:28;30.55;;;20.60;;
31336;SDS011;22846;42.654;23.314;2024-02-26T13:42:54;28.55;;;20.85;;
31336;SDS011;22846;42.654;23.314;2024-02-26T13:45:19;35.35;;;19.10;;
31336;SDS011;22846;42.654;23.314;2024-02-26T13:47:45;32.60;;;19.95;;
31336;SDS011;22846;42.654;23.314;2024-02-26T13:50:10;57.83;;;19.13;;
31336;SDS011;22846;42.654;23.314;2024-02-26T13:52:36;28.35;;;18.10;;
31336;SDS011;22846;42.654;23.314;2024-02-26T13:55:01;35.05;;;19.65;;
31336;SDS011;22846;42.654;23.314;2024-02-26T13:57:28;32.88;;;17.88;;
31336;SDS011;22846;42.654;23.314;2024-02-26T13:59:54;27.17;;;17.80;;
31336;SDS011;22846;42.654;23.314;2024-02-26T14:02:19;27.50;;;17.38;;
31336;SDS011;22846;42.654;23.314;2024-02-26T14:04:45;33.35;;;16.73;;
31336;SDS011;22846;42.654;23.314;2024-02-26T14:07:11;26.20;;;16.40;;
31336;SDS011;22846;42.654;23.314;2024-02-26T14:09:37;28.88;;;16.48;;
31336;SDS011;22846;42.654;23.314;2024-02-26T14:12:03;29.52;;;16.85;;
31336;SDS011;22846;42.654;23.314;2024-02-26T14:14:29;31.38;;;17.13;;
31336;SDS011;22846;42.654;23.314;2024-02-26T14:16:58;27.77;;;16.63;;
31336;SDS011;22846;42.654;23.314;2024-02-26T14:19:23;26.60;;;15.82;;
31336;SDS011;22846;42.654;23.314;2024-02-26T14:21:49;25.08;;;14.95;;